Time;durP1;ratioP1;P1;durP2;ratioP2;P2;SDS_P1;SDS_P2;PMS_P1;PMS_P2;Temp;Humidity;BMP_temperature;BMP_pressure;BME280_temperature;BME280_humidity;BME280_pressure;Samples;Min_cycle;Max_cycle;Signal;HPM_P1;HPM_P2
2021/03/13 00:01:31;;;;;;;5.20;4.70;;;;;;;;;;4955350;28;20475;-66
2021/03/13 00:03:57;;;;;;;5.37;4.87;;;;;;;;;;4961244;28;20513;-65
2021/03/13 00:06:24;;;;;;;6.17;4.80;;;;;;;;;;4965954;28;20471;-65
2021/03/13 00:08:50;;;;;;;4.80;4.30;;;;;;;;;;4969586;28;20578;-65
2021/03/13 00:11:17;;;;;;;4.67;4.30;;;;;;;;;;4954222;28;20460;-65
2021/03/13 00:13:44;;;;;;;4.73;4.37;;;;;;;;;;4954038;28;20902;-65
2021/03/13 00:16:11;;;;;;;5.13;4.63;;;;;;;;;;4953659;28;20963;-65
2021/03/13 00:18:39;;;;;;;6.50;4.77;;;;;;;;;;4970049;28;20494;-65
2021/03/13 00:21:06;;;;;;;5.80;5.40;;;;;;;;;;4970397;28;20542;-64
2021/03/13 00:23:33;;;;;;;5.80;5.50;;;;;;;;;;4953610;28;20495;-65
2021/03/13 00:26:00;;;;;;;5.80;5.40;;;;;;;;;;4969079;28;20467;-65
2021/03/13 00:28:26;;;;;;;5.57;5.17;;;;;;;;;;4973330;28;20834;-65
2021/03/13 00:30:53;;;;;;;6.63;6.03;;;;;;;;;;4969675;28;20490;-66
2021/03/13 00:33:20;;;;;;;6.20;5.70;;;;;;;;;;4972453;28;20493;-65
2021/03/13 00:35:49;;;;;;;5.80;5.33;;;;;;;;;;4959197;28;20904;-66
2021/03/13 00:38:16;;;;;;;6.43;5.93;;;;;;;;;;4973309;28;20505;-65
2021/03/13 00:40:43;;;;;;;6.40;5.80;;;;;;;;;;4964686;28;20495;-65
2021/03/13 00:43:11;;;;;;;6.33;5.83;;;;;;;;;;4954205;29;20440;-65
2021/03/13 00:45:38;;;;;;;5.47;5.00;;;;;;;;;;4958867;28;20475;-65
2021/03/13 00:48:05;;;;;;;5.93;5.43;;;;;;;;;;4956363;28;20563;-66
2021/03/13 00:50:32;;;;;;;6.00;5.60;;;;;;;;;;4970520;28;20561;-66
2021/03/13 00:53:00;;;;;;;6.10;5.67;;;;;;;;;;4963284;28;20483;-66
2021/03/13 00:55:27;;;;;;;6.13;5.53;;;;;;;;;;4961694;28;20452;-65
2021/03/13 00:57:53;;;;;;;6.80;6.07;;;;;;;;;;4956899;28;20459;-65
2021/03/13 01:00:21;;;;;;;5.27;4.97;;;;;;;;;;4961999;28;20484;-66
2021/03/13 01:02:48;;;;;;;6.37;5.87;;;;;;;;;;4961903;28;20509;-66
2021/03/13 01:05:15;;;;;;;5.37;4.87;;;;;;;;;;4971775;28;20452;-65
2021/03/13 01:07:42;;;;;;;4.80;4.40;;;;;;;;;;4959486;28;20464;-65
2021/03/13 01:10:13;;;;;;;5.57;4.77;;;;;;;;;;4952645;28;20575;-63
2021/03/13 01:12:39;;;;;;;5.10;4.70;;;;;;;;;;4955457;28;20480;-65
2021/03/13 01:15:08;;;;;;;4.60;4.20;;;;;;;;;;4953422;29;20511;-66
2021/03/13 01:17:34;;;;;;;4.63;4.33;;;;;;;;;;4968089;28;21180;-66
2021/03/13 01:20:01;;;;;;;5.73;4.20;;;;;;;;;;4970273;28;20586;-66
2021/03/13 01:22:28;;;;;;;4.70;4.30;;;;;;;;;;4960771;28;20506;-64
2021/03/13 01:24:54;;;;;;;4.70;4.30;;;;;;;;;;4957383;29;20487;-66
2021/03/13 01:27:22;;;;;;;5.03;4.00;;;;;;;;;;4958315;28;20534;-64
2021/03/13 01:29:48;;;;;;;4.47;3.90;;;;;;;;;;4974669;28;20582;-65
2021/03/13 01:32:15;;;;;;;4.83;4.40;;;;;;;;;;4975851;28;20553;-64
2021/03/13 01:34:42;;;;;;;5.40;4.53;;;;;;;;;;4959927;28;20468;-65
2021/03/13 01:37:08;;;;;;;4.60;4.20;;;;;;;;;;4959686;28;20531;-65
2021/03/13 01:39:35;;;;;;;5.40;4.00;;;;;;;;;;4956405;28;20498;-65
2021/03/13 01:42:02;;;;;;;4.63;4.20;;;;;;;;;;4969466;28;20597;-65
2021/03/13 01:44:29;;;;;;;5.50;4.50;;;;;;;;;;4957591;28;20468;-66
2021/03/13 01:46:56;;;;;;;4.40;4.00;;;;;;;;;;4958106;28;20962;-65
2021/03/13 01:49:27;;;;;;;5.17;4.67;;;;;;;;;;4960388;28;20500;-66
2021/03/13 01:51:53;;;;;;;5.43;4.60;;;;;;;;;;4966908;28;20517;-65
2021/03/13 01:54:20;;;;;;;6.87;4.60;;;;;;;;;;4975058;28;20471;-66
2021/03/13 01:56:49;;;;;;;4.90;4.43;;;;;;;;;;4964784;28;20468;-65
2021/03/13 02:01:45;;;;;;;3.83;3.47;;;;;;;;;;4950064;28;20830;-63
2021/03/13 02:04:12;;;;;;;4.83;3.67;;;;;;;;;;4955302;28;20958;-63
2021/03/13 02:06:39;;;;;;;3.80;3.50;;;;;;;;;;4955657;29;20456;-63
2021/03/13 02:09:11;;;;;;;4.37;3.40;;;;;;;;;;4954922;28;20922;-63
2021/03/13 02:11:39;;;;;;;4.60;3.57;;;;;;;;;;4955589;29;21128;-63
2021/03/13 02:14:11;;;;;;;4.83;3.70;;;;;;;;;;4955760;29;20462;-62
2021/03/13 02:16:42;;;;;;;4.00;3.53;;;;;;;;;;4954810;29;21162;-62
2021/03/13 02:19:24;;;;;;;4.47;3.63;;;;;;;;;;4950076;28;20503;-63
2021/03/13 02:21:54;;;;;;;3.60;3.30;;;;;;;;;;4955718;29;20526;-62
2021/03/13 02:24:26;;;;;;;4.77;4.00;;;;;;;;;;4954492;29;20464;-62
2021/03/13 02:26:56;;;;;;;4.57;4.17;;;;;;;;;;4955641;29;20916;-62
2021/03/13 02:29:41;;;;;;;4.10;3.70;;;;;;;;;;4954327;29;20495;-63
2021/03/13 02:32:09;;;;;;;4.67;4.23;;;;;;;;;;4947007;28;20856;-62
2021/03/13 02:34:36;;;;;;;5.90;5.37;;;;;;;;;;4951427;28;20472;-62
2021/03/13 02:37:05;;;;;;;6.13;5.53;;;;;;;;;;4955383;29;20535;-63
2021/03/13 02:39:33;;;;;;;7.90;6.30;;;;;;;;;;4953376;29;20473;-63
2021/03/13 02:42:01;;;;;;;7.03;6.27;;;;;;;;;;4955335;29;20932;-62
2021/03/13 02:44:28;;;;;;;9.10;6.87;;;;;;;;;;4947360;28;20471;-63
2021/03/13 02:46:55;;;;;;;8.03;7.33;;;;;;;;;;4946478;28;20477;-63
2021/03/13 02:49:24;;;;;;;8.77;7.70;;;;;;;;;;4955127;28;20563;-61
2021/03/13 02:51:53;;;;;;;10.63;7.83;;;;;;;;;;4955550;28;20457;-63
2021/03/13 02:54:20;;;;;;;9.50;7.87;;;;;;;;;;4942449;28;20556;-62
2021/03/13 02:56:46;;;;;;;8.87;7.50;;;;;;;;;;4954800;29;20468;-62
2021/03/13 02:59:15;;;;;;;8.17;7.20;;;;;;;;;;4953057;28;20479;-62
2021/03/13 03:01:43;;;;;;;10.57;7.60;;;;;;;;;;4954029;29;20480;-62
2021/03/13 03:04:10;;;;;;;9.30;8.40;;;;;;;;;;4954194;28;20963;-63
2021/03/13 03:06:39;;;;;;;8.33;7.57;;;;;;;;;;4953688;28;20967;-62
2021/03/13 03:09:07;;;;;;;8.30;7.50;;;;;;;;;;4952708;28;20575;-62
2021/03/13 03:11:34;;;;;;;9.93;9.00;;;;;;;;;;4955168;29;20551;-64
2021/03/13 03:14:01;;;;;;;9.60;8.70;;;;;;;;;;4954777;29;20855;-62
2021/03/13 03:16:28;;;;;;;9.10;7.87;;;;;;;;;;4950836;28;20464;-64
2021/03/13 03:18:56;;;;;;;8.53;7.70;;;;;;;;;;4953847;28;20555;-65
2021/03/13 03:21:23;;;;;;;11.13;8.73;;;;;;;;;;4954815;28;20500;-65
2021/03/13 03:23:50;;;;;;;10.63;9.30;;;;;;;;;;4954322;28;20465;-64
2021/03/13 03:26:18;;;;;;;11.37;9.27;;;;;;;;;;4953191;28;20833;-65
2021/03/13 03:28:46;;;;;;;9.93;9.03;;;;;;;;;;4955132;28;20463;-65
2021/03/13 03:31:14;;;;;;;9.90;8.57;;;;;;;;;;4953159;28;20480;-65
2021/03/13 03:33:41;;;;;;;10.43;9.50;;;;;;;;;;4955488;28;20516;-65
2021/03/13 03:36:07;;;;;;;11.47;9.20;;;;;;;;;;4954893;29;20490;-65
2021/03/13 03:38:34;;;;;;;10.00;8.87;;;;;;;;;;4955734;29;20456;-65
2021/03/13 03:41:02;;;;;;;10.60;9.53;;;;;;;;;;4940223;28;20580;-65
2021/03/13 03:43:32;;;;;;;10.83;8.83;;;;;;;;;;4947403;28;20539;-65
2021/03/13 03:46:00;;;;;;;12.60;9.90;;;;;;;;;;4953639;29;20555;-65
2021/03/13 03:48:27;;;;;;;10.33;9.07;;;;;;;;;;4953878;29;20511;-65
2021/03/13 03:50:55;;;;;;;13.17;9.40;;;;;;;;;;4941819;29;20869;-64
2021/03/13 03:53:23;;;;;;;11.37;9.07;;;;;;;;;;4953756;29;20487;-65
2021/03/13 03:55:52;;;;;;;13.20;10.17;;;;;;;;;;4954068;29;20464;-65
2021/03/13 03:58:22;;;;;;;12.53;10.43;;;;;;;;;;4945387;28;20482;-65
2021/03/13 04:00:50;;;;;;;12.20;10.90;;;;;;;;;;4953656;28;20914;-65
2021/03/13 04:03:18;;;;;;;11.43;10.20;;;;;;;;;;4950681;28;20464;-63
2021/03/13 04:05:46;;;;;;;17.40;10.47;;;;;;;;;;4947974;28;20460;-64
2021/03/13 04:08:13;;;;;;;15.83;11.53;;;;;;;;;;4953873;29;20535;-63
2021/03/13 04:10:41;;;;;;;11.23;10.07;;;;;;;;;;4953111;28;20488;-65
2021/03/13 04:13:08;;;;;;;16.20;10.00;;;;;;;;;;4953370;29;20484;-66
2021/03/13 04:15:36;;;;;;;15.17;11.40;;;;;;;;;;4953631;29;20452;-65
2021/03/13 04:18:03;;;;;;;12.87;11.50;;;;;;;;;;4953522;29;20460;-64
2021/03/13 04:20:29;;;;;;;12.20;10.97;;;;;;;;;;4951907;28;20917;-65
2021/03/13 04:22:57;;;;;;;13.50;11.30;;;;;;;;;;4953741;29;20468;-65
2021/03/13 04:25:23;;;;;;;13.77;12.47;;;;;;;;;;4952752;28;20959;-65
2021/03/13 04:27:50;;;;;;;15.30;13.70;;;;;;;;;;4952740;29;20503;-65
2021/03/13 04:30:18;;;;;;;17.10;13.47;;;;;;;;;;4953608;28;20559;-66
2021/03/13 04:32:47;;;;;;;14.47;12.97;;;;;;;;;;4952856;28;20480;-65
2021/03/13 04:35:14;;;;;;;15.77;14.10;;;;;;;;;;4953228;29;21018;-62
2021/03/13 04:37:41;;;;;;;15.77;13.43;;;;;;;;;;4951990;28;20519;-64
2021/03/13 04:40:09;;;;;;;16.20;14.50;;;;;;;;;;4946540;28;20559;-64
2021/03/13 04:42:36;;;;;;;21.40;15.20;;;;;;;;;;4947666;28;20461;-64
2021/03/13 04:45:03;;;;;;;24.93;15.40;;;;;;;;;;4954128;29;20452;-65
2021/03/13 04:47:29;;;;;;;17.00;15.30;;;;;;;;;;4949053;29;20555;-64
2021/03/13 04:49:59;;;;;;;19.43;15.70;;;;;;;;;;4951919;28;21031;-65
2021/03/13 04:52:26;;;;;;;16.87;15.27;;;;;;;;;;4950689;28;20487;-62
2021/03/13 04:54:52;;;;;;;18.40;15.90;;;;;;;;;;4951923;28;20468;-65
2021/03/13 04:57:20;;;;;;;15.27;13.67;;;;;;;;;;4944044;29;21009;-65
2021/03/13 04:59:46;;;;;;;16.80;15.03;;;;;;;;;;4945921;29;20492;-65
2021/03/13 05:02:13;;;;;;;20.70;15.50;;;;;;;;;;4950994;29;20528;-62
2021/03/13 05:04:40;;;;;;;18.07;16.20;;;;;;;;;;4957518;29;20466;-65
2021/03/13 05:07:07;;;;;;;20.00;17.80;;;;;;;;;;4945241;29;20461;-65
2021/03/13 05:09:34;;;;;;;21.27;19.20;;;;;;;;;;4955263;29;21136;-65
2021/03/13 05:12:00;;;;;;;22.93;18.40;;;;;;;;;;4957202;29;20455;-65
2021/03/13 05:14:27;;;;;;;22.50;20.50;;;;;;;;;;4943103;29;20468;-65
2021/03/13 05:16:54;;;;;;;22.37;20.10;;;;;;;;;;4956124;28;20476;-64
2021/03/13 05:19:21;;;;;;;23.53;21.20;;;;;;;;;;4954571;28;20468;-65
2021/03/13 05:21:47;;;;;;;24.77;20.77;;;;;;;;;;4957213;29;20547;-66
2021/03/13 05:24:15;;;;;;;23.63;21.37;;;;;;;;;;4956076;29;20468;-64
2021/03/13 05:26:41;;;;;;;23.40;21.30;;;;;;;;;;4956324;29;20539;-65
2021/03/13 05:29:08;;;;;;;23.97;21.77;;;;;;;;;;4955665;28;20918;-65
2021/03/13 05:31:35;;;;;;;24.10;22.00;;;;;;;;;;4956590;28;20486;-66
2021/03/13 05:34:01;;;;;;;24.47;22.10;;;;;;;;;;4955298;28;21020;-65
2021/03/13 05:36:28;;;;;;;25.63;22.87;;;;;;;;;;4955545;28;20559;-66
2021/03/13 05:38:55;;;;;;;25.33;22.90;;;;;;;;;;4952927;28;20496;-64
2021/03/13 05:41:22;;;;;;;25.77;23.20;;;;;;;;;;4956554;29;20983;-64
2021/03/13 05:43:49;;;;;;;25.77;23.37;;;;;;;;;;4948098;28;20465;-63
2021/03/13 05:46:18;;;;;;;26.13;23.80;;;;;;;;;;4941730;28;20597;-65
2021/03/13 05:48:45;;;;;;;25.07;22.67;;;;;;;;;;4955947;28;20558;-66
2021/03/13 05:51:13;;;;;;;26.47;23.93;;;;;;;;;;4953876;28;20488;-65
2021/03/13 05:53:40;;;;;;;27.17;24.67;;;;;;;;;;4955166;29;20904;-65
2021/03/13 05:56:08;;;;;;;26.30;23.70;;;;;;;;;;4954913;28;20858;-66
2021/03/13 05:58:36;;;;;;;27.93;25.20;;;;;;;;;;4956266;29;20451;-66
2021/03/13 06:01:03;;;;;;;26.97;24.30;;;;;;;;;;4955254;28;20499;-64
2021/03/13 06:03:32;;;;;;;26.37;23.90;;;;;;;;;;4942980;28;20453;-66
2021/03/13 06:05:59;;;;;;;26.20;23.77;;;;;;;;;;4948779;28;20464;-66
2021/03/13 06:08:26;;;;;;;27.50;24.63;;;;;;;;;;4955904;29;20456;-64
2021/03/13 06:10:55;;;;;;;27.63;25.00;;;;;;;;;;4954667;28;21009;-66
2021/03/13 06:13:21;;;;;;;27.30;24.70;;;;;;;;;;4954339;28;20499;-65
2021/03/13 06:15:49;;;;;;;27.33;24.60;;;;;;;;;;4955056;28;20837;-66
2021/03/13 06:18:16;;;;;;;26.10;23.50;;;;;;;;;;4955651;28;20492;-64
2021/03/13 06:20:42;;;;;;;26.67;23.70;;;;;;;;;;4954289;28;20558;-65
2021/03/13 06:23:13;;;;;;;27.00;24.37;;;;;;;;;;4952050;28;20472;-65
2021/03/13 06:25:40;;;;;;;25.90;23.23;;;;;;;;;;4944805;29;20480;-65
2021/03/13 06:28:08;;;;;;;26.43;23.73;;;;;;;;;;4955418;28;20498;-65
2021/03/13 06:30:36;;;;;;;25.87;22.97;;;;;;;;;;4955831;29;20560;-65
2021/03/13 06:33:18;;;;;;;24.90;22.23;;;;;;;;;;4954836;29;20476;-65
2021/03/13 06:35:45;;;;;;;25.03;22.50;;;;;;;;;;4954378;29;20460;-65
2021/03/13 06:38:14;;;;;;;24.57;21.67;;;;;;;;;;4954019;28;20472;-64
2021/03/13 06:40:40;;;;;;;24.87;22.27;;;;;;;;;;4954181;28;20894;-65
2021/03/13 06:43:18;;;;;;;23.10;20.90;;;;;;;;;;4955512;29;20519;-65
2021/03/13 06:45:54;;;;;;;25.07;22.50;;;;;;;;;;4954779;28;20464;-65
2021/03/13 06:48:29;;;;;;;23.63;21.30;;;;;;;;;;4954141;28;20464;-64
2021/03/13 06:51:13;;;;;;;22.40;20.20;;;;;;;;;;4954343;28;20491;-66
2021/03/13 06:53:40;;;;;;;22.33;20.10;;;;;;;;;;4953963;28;20826;-66
2021/03/13 06:56:08;;;;;;;20.93;18.93;;;;;;;;;;4954046;29;20841;-65
2021/03/13 06:58:34;;;;;;;21.00;18.80;;;;;;;;;;4952298;28;20603;-66
2021/03/13 07:01:04;;;;;;;20.47;18.30;;;;;;;;;;4949811;28;20579;-65
2021/03/13 07:03:31;;;;;;;20.73;17.80;;;;;;;;;;4945803;29;20516;-66
2021/03/13 07:05:58;;;;;;;9.17;8.20;;;;;;;;;;4950267;29;20461;-66
2021/03/13 07:08:26;;;;;;;7.60;6.70;;;;;;;;;;4942396;28;20925;-66
2021/03/13 07:10:54;;;;;;;8.33;5.90;;;;;;;;;;4953850;28;20559;-69
2021/03/13 07:13:33;;;;;;;4.30;3.80;;;;;;;;;;4950814;28;20497;-64
2021/03/13 07:16:15;;;;;;;6.60;4.20;;;;;;;;;;4955016;29;20555;-64
2021/03/13 07:18:42;;;;;;;7.90;4.70;;;;;;;;;;4938316;28;20464;-64
2021/03/13 07:21:09;;;;;;;6.97;3.70;;;;;;;;;;4953962;28;21081;-63
2021/03/13 07:23:36;;;;;;;4.10;2.83;;;;;;;;;;4954342;28;20457;-64
2021/03/13 07:26:03;;;;;;;5.83;2.27;;;;;;;;;;4953182;28;20472;-65
2021/03/13 07:28:30;;;;;;;4.13;2.23;;;;;;;;;;4953490;29;20554;-63
2021/03/13 07:30:57;;;;;;;2.77;2.00;;;;;;;;;;4954526;29;20479;-64
2021/03/13 07:33:25;;;;;;;2.60;2.10;;;;;;;;;;4953973;28;20488;-64
2021/03/13 07:35:52;;;;;;;3.50;2.33;;;;;;;;;;4952436;28;20904;-63
2021/03/13 07:38:19;;;;;;;3.90;1.90;;;;;;;;;;4953645;28;20571;-64
2021/03/13 07:40:47;;;;;;;5.67;2.00;;;;;;;;;;4954238;28;20891;-64
2021/03/13 07:43:14;;;;;;;3.50;2.57;;;;;;;;;;4953167;29;20601;-63
2021/03/13 07:45:41;;;;;;;2.30;1.40;;;;;;;;;;4954499;29;20471;-64
2021/03/13 07:48:09;;;;;;;2.33;1.90;;;;;;;;;;4955464;28;20530;-61
2021/03/13 07:50:36;;;;;;;3.20;1.97;;;;;;;;;;4956099;28;20508;-63
2021/03/13 07:53:03;;;;;;;3.33;1.50;;;;;;;;;;4955393;28;20487;-64
2021/03/13 07:55:31;;;;;;;2.47;1.67;;;;;;;;;;4955257;29;20500;-64
2021/03/13 07:57:58;;;;;;;2.53;1.60;;;;;;;;;;4953031;28;20559;-63
2021/03/13 08:00:40;;;;;;;2.60;1.90;;;;;;;;;;4978176;23;20480;-67
2021/03/13 08:03:29;;;;;;;2.53;1.80;;;;;;;;;;4947762;28;20465;-65
2021/03/13 08:05:57;;;;;;;2.27;1.37;;;;;;;;;;4951123;29;20468;-66
2021/03/13 08:08:33;;;;;;;2.13;1.30;;;;;;;;;;4953468;29;20455;-64
2021/03/13 08:11:00;;;;;;;2.33;1.20;;;;;;;;;;4947505;29;20492;-64
2021/03/13 08:13:48;;;;;;;1.57;1.20;;;;;;;;;;4933734;29;20492;-66
2021/03/13 08:16:18;;;;;;;1.97;1.30;;;;;;;;;;4911058;29;20475;-66
2021/03/13 08:18:46;;;;;;;1.50;1.13;;;;;;;;;;4930133;29;20869;-65
2021/03/13 08:21:36;;;;;;;3.20;1.30;;;;;;;;;;4934639;29;20556;-66
2021/03/13 08:24:04;;;;;;;2.50;1.10;;;;;;;;;;4933211;29;20458;-65
2021/03/13 08:26:46;;;;;;;3.30;3.10;;;;;;;;;;4935594;29;20467;-64
2021/03/13 08:29:12;;;;;;;5.03;4.53;;;;;;;;;;4933444;29;20461;-63
2021/03/13 08:31:40;;;;;;;5.20;4.90;;;;;;;;;;4934191;29;20532;-63
2021/03/13 08:34:27;;;;;;;5.70;5.27;;;;;;;;;;4934015;29;20489;-64
2021/03/13 08:36:54;;;;;;;5.43;4.97;;;;;;;;;;4932026;29;20453;-65
2021/03/13 08:39:22;;;;;;;5.40;5.10;;;;;;;;;;4934478;29;20956;-64
2021/03/13 08:41:49;;;;;;;5.20;4.80;;;;;;;;;;4935007;29;20485;-63
2021/03/13 08:44:27;;;;;;;5.80;5.40;;;;;;;;;;4934522;29;20445;-64
2021/03/13 08:46:54;;;;;;;6.33;5.93;;;;;;;;;;4933733;29;20811;-64
2021/03/13 08:49:41;;;;;;;6.57;6.03;;;;;;;;;;4934905;29;20460;-66
2021/03/13 08:52:24;;;;;;;6.00;5.50;;;;;;;;;;4933955;29;20477;-66
2021/03/13 08:54:54;;;;;;;6.30;5.90;;;;;;;;;;4934222;29;20974;-64
2021/03/13 08:57:39;;;;;;;6.90;6.40;;;;;;;;;;4941872;29;20459;-66
2021/03/13 09:00:07;;;;;;;6.90;6.30;;;;;;;;;;4953441;29;20452;-65
2021/03/13 09:02:35;;;;;;;7.47;6.97;;;;;;;;;;4934367;29;21034;-66
2021/03/13 09:05:03;;;;;;;7.20;6.70;;;;;;;;;;4934083;29;21060;-68
2021/03/13 09:07:29;;;;;;;7.40;6.80;;;;;;;;;;4933561;29;20463;-65
2021/03/13 09:09:57;;;;;;;7.47;6.87;;;;;;;;;;4933713;29;20825;-65
2021/03/13 09:12:24;;;;;;;7.27;6.77;;;;;;;;;;4933943;29;20484;-66
2021/03/13 09:14:52;;;;;;;7.60;7.03;;;;;;;;;;4933721;29;20502;-66
2021/03/13 09:17:20;;;;;;;7.20;6.70;;;;;;;;;;4934271;29;20821;-66
2021/03/13 09:19:47;;;;;;;7.50;7.00;;;;;;;;;;4933667;29;20461;-65
2021/03/13 09:22:15;;;;;;;6.43;5.97;;;;;;;;;;4933458;29;20473;-67
2021/03/13 09:24:42;;;;;;;7.10;6.60;;;;;;;;;;4933676;29;20821;-66
2021/03/13 09:27:10;;;;;;;6.60;6.20;;;;;;;;;;4933227;29;20546;-66
2021/03/13 09:29:37;;;;;;;6.40;5.97;;;;;;;;;;4934104;29;20460;-66
2021/03/13 09:32:04;;;;;;;7.47;6.87;;;;;;;;;;4929231;29;20481;-66
2021/03/13 09:34:32;;;;;;;6.33;5.93;;;;;;;;;;4933640;29;20544;-66
2021/03/13 09:36:59;;;;;;;7.23;6.70;;;;;;;;;;4933106;29;20507;-66
2021/03/13 09:39:26;;;;;;;8.13;7.10;;;;;;;;;;4933662;29;20524;-66
2021/03/13 09:42:03;;;;;;;6.60;6.10;;;;;;;;;;4935442;29;20476;-66
2021/03/13 09:44:35;;;;;;;5.73;5.33;;;;;;;;;;4937109;29;20457;-63
2021/03/13 09:47:02;;;;;;;6.87;6.30;;;;;;;;;;4927937;29;20463;-64
2021/03/13 09:49:28;;;;;;;4.93;4.53;;;;;;;;;;4937732;29;20453;-63
2021/03/13 09:51:55;;;;;;;4.20;3.90;;;;;;;;;;4936418;29;20480;-65
2021/03/13 09:54:21;;;;;;;2.83;2.70;;;;;;;;;;4923071;29;20489;-68
2021/03/13 09:56:48;;;;;;;3.17;2.87;;;;;;;;;;4936755;29;20459;-65
2021/03/13 09:59:18;;;;;;;3.33;3.03;;;;;;;;;;4936890;29;20453;-67
2021/03/13 10:01:45;;;;;;;2.90;2.80;;;;;;;;;;4936455;29;20504;-65
2021/03/13 10:04:12;;;;;;;2.60;2.40;;;;;;;;;;4937008;29;20449;-67
2021/03/13 10:06:39;;;;;;;2.93;2.73;;;;;;;;;;4936210;29;20460;-65
2021/03/13 10:09:06;;;;;;;3.53;3.00;;;;;;;;;;4936570;29;20449;-66
2021/03/13 10:11:39;;;;;;;2.87;2.60;;;;;;;;;;4936942;29;20477;-65
2021/03/13 10:14:06;;;;;;;4.60;2.70;;;;;;;;;;4935959;29;20488;-64
2021/03/13 10:16:32;;;;;;;3.23;2.30;;;;;;;;;;4936556;29;20479;-64
2021/03/13 10:19:00;;;;;;;3.40;2.90;;;;;;;;;;4936893;29;20532;-65
2021/03/13 10:21:26;;;;;;;3.13;2.80;;;;;;;;;;4943607;29;20480;-64
2021/03/13 10:23:59;;;;;;;2.73;2.53;;;;;;;;;;4936564;29;20450;-65
2021/03/13 10:26:27;;;;;;;3.37;2.60;;;;;;;;;;4942596;29;20449;-65
2021/03/13 10:28:54;;;;;;;2.47;2.10;;;;;;;;;;4936299;29;20453;-65
2021/03/13 10:31:22;;;;;;;3.97;2.80;;;;;;;;;;4936334;29;20579;-64
2021/03/13 10:33:49;;;;;;;2.13;1.93;;;;;;;;;;4935702;29;21121;-64
2021/03/13 10:36:18;;;;;;;2.27;1.90;;;;;;;;;;4935400;29;20460;-66
2021/03/13 10:38:46;;;;;;;2.87;2.10;;;;;;;;;;4941251;29;20475;-65
2021/03/13 10:41:14;;;;;;;3.87;2.10;;;;;;;;;;4932082;29;20551;-65
2021/03/13 10:43:42;;;;;;;4.30;2.13;;;;;;;;;;4935769;29;20541;-65
2021/03/13 10:46:10;;;;;;;3.53;2.10;;;;;;;;;;4936037;29;20485;-65
2021/03/13 10:48:38;;;;;;;5.33;2.00;;;;;;;;;;4935956;29;20453;-65
2021/03/13 10:51:05;;;;;;;4.07;2.20;;;;;;;;;;4936333;29;20867;-64
2021/03/13 10:53:34;;;;;;;3.73;2.23;;;;;;;;;;4937350;29;20485;-66
2021/03/13 10:56:02;;;;;;;3.13;1.63;;;;;;;;;;4939395;29;20458;-66
2021/03/13 10:58:29;;;;;;;4.63;2.10;;;;;;;;;;4945833;29;20462;-68
2021/03/13 11:00:56;;;;;;;2.90;1.90;;;;;;;;;;4954915;28;20528;-65
2021/03/13 11:03:23;;;;;;;3.93;2.10;;;;;;;;;;4946291;29;20508;-66
2021/03/13 11:05:51;;;;;;;3.70;2.53;;;;;;;;;;4935646;29;20544;-65
2021/03/13 11:08:18;;;;;;;7.20;2.53;;;;;;;;;;4941007;29;20457;-66
2021/03/13 11:10:46;;;;;;;6.20;2.50;;;;;;;;;;4954907;28;20623;-66
2021/03/13 11:13:12;;;;;;;3.20;2.10;;;;;;;;;;4947751;29;20836;-65
2021/03/13 11:15:39;;;;;;;3.53;2.70;;;;;;;;;;4935395;29;20544;-65
2021/03/13 11:18:06;;;;;;;5.63;2.90;;;;;;;;;;4937197;29;20536;-65
2021/03/13 11:20:33;;;;;;;3.47;2.40;;;;;;;;;;4934760;29;20453;-65
2021/03/13 11:23:00;;;;;;;5.40;3.00;;;;;;;;;;4936284;29;20449;-66
2021/03/13 11:25:26;;;;;;;5.53;3.40;;;;;;;;;;4935972;29;20958;-66
2021/03/13 11:27:54;;;;;;;5.93;3.57;;;;;;;;;;4941054;29;20457;-68
2021/03/13 11:30:21;;;;;;;5.57;3.37;;;;;;;;;;4936270;29;20956;-65
2021/03/13 11:32:48;;;;;;;4.70;3.03;;;;;;;;;;4934653;29;20456;-65
2021/03/13 11:35:15;;;;;;;5.63;3.33;;;;;;;;;;4935872;29;20464;-65
2021/03/13 11:37:42;;;;;;;4.70;2.80;;;;;;;;;;4938803;29;20457;-67
2021/03/13 11:40:10;;;;;;;5.70;3.30;;;;;;;;;;4934479;29;20456;-65
2021/03/13 11:42:36;;;;;;;6.10;3.30;;;;;;;;;;4935197;29;20473;-65
2021/03/13 11:45:06;;;;;;;5.07;3.83;;;;;;;;;;4934615;29;20453;-65
2021/03/13 11:47:32;;;;;;;4.87;3.87;;;;;;;;;;4934901;29;20457;-65
2021/03/13 11:49:59;;;;;;;5.20;3.40;;;;;;;;;;4934831;29;20461;-65
2021/03/13 11:52:26;;;;;;;4.17;3.70;;;;;;;;;;4934540;29;20500;-66
2021/03/13 11:54:53;;;;;;;4.60;4.17;;;;;;;;;;4934200;29;20493;-66
2021/03/13 11:57:20;;;;;;;6.53;4.30;;;;;;;;;;4934623;29;20465;-66
2021/03/13 11:59:47;;;;;;;4.50;3.73;;;;;;;;;;4953882;29;21030;-65
2021/03/13 12:02:15;;;;;;;8.70;7.60;;;;;;;;;;4952245;28;20590;-65
2021/03/13 12:04:41;;;;;;;8.63;4.47;;;;;;;;;;4934295;29;20544;-65
2021/03/13 12:07:09;;;;;;;5.53;3.70;;;;;;;;;;4934618;29;20507;-68
2021/03/13 12:09:36;;;;;;;5.87;4.20;;;;;;;;;;4933720;29;20457;-65
2021/03/13 12:12:05;;;;;;;5.83;3.60;;;;;;;;;;4934358;29;20481;-65
2021/03/13 12:14:32;;;;;;;5.27;4.17;;;;;;;;;;4936112;29;20489;-65
2021/03/13 12:16:59;;;;;;;6.10;4.80;;;;;;;;;;4934486;29;20540;-65
2021/03/13 12:19:26;;;;;;;6.03;4.20;;;;;;;;;;4934211;29;20453;-69
2021/03/13 12:21:53;;;;;;;6.07;4.67;;;;;;;;;;4934398;29;20473;-65
2021/03/13 12:24:20;;;;;;;8.17;4.00;;;;;;;;;;4934170;29;20495;-65
2021/03/13 12:26:46;;;;;;;3.80;2.27;;;;;;;;;;4934086;29;20456;-68
2021/03/13 12:29:13;;;;;;;5.20;3.30;;;;;;;;;;4940931;29;20456;-66
2021/03/13 12:31:40;;;;;;;3.43;3.00;;;;;;;;;;4933874;29;20562;-66
2021/03/13 12:34:06;;;;;;;5.67;3.60;;;;;;;;;;4933840;29;20481;-65
2021/03/13 12:36:34;;;;;;;4.00;3.10;;;;;;;;;;4937258;29;20456;-65
2021/03/13 12:39:01;;;;;;;5.10;3.50;;;;;;;;;;4934177;29;21055;-67
2021/03/13 12:41:27;;;;;;;4.70;2.87;;;;;;;;;;4933808;29;20477;-66
2021/03/13 12:43:54;;;;;;;5.03;3.50;;;;;;;;;;4940005;29;20583;-65
2021/03/13 12:46:21;;;;;;;4.10;2.93;;;;;;;;;;4947978;29;20461;-65
2021/03/13 12:48:48;;;;;;;6.80;3.37;;;;;;;;;;4935514;29;20544;-66
2021/03/13 12:51:15;;;;;;;4.70;2.17;;;;;;;;;;4933931;29;20477;-65
2021/03/13 12:53:43;;;;;;;5.43;2.90;;;;;;;;;;4934046;29;20489;-66
2021/03/13 12:56:09;;;;;;;3.13;2.33;;;;;;;;;;4933481;29;20975;-65
2021/03/13 12:58:36;;;;;;;4.30;2.30;;;;;;;;;;4937973;29;20511;-65
2021/03/13 13:01:03;;;;;;;6.30;2.57;;;;;;;;;;4941871;29;20487;-65
2021/03/13 13:03:29;;;;;;;4.90;2.63;;;;;;;;;;4933583;29;20461;-68
2021/03/13 13:05:56;;;;;;;2.77;1.90;;;;;;;;;;4934131;29;20524;-65
2021/03/13 13:08:23;;;;;;;3.93;2.40;;;;;;;;;;4933940;29;20512;-65
2021/03/13 13:10:50;;;;;;;5.83;3.50;;;;;;;;;;4938427;28;20468;-68
2021/03/13 13:13:19;;;;;;;5.10;2.80;;;;;;;;;;4953090;29;20487;-65
2021/03/13 13:15:47;;;;;;;3.50;2.00;;;;;;;;;;4937939;29;20465;-65
2021/03/13 13:18:14;;;;;;;3.60;1.90;;;;;;;;;;4937095;29;20461;-66
2021/03/13 13:20:41;;;;;;;3.10;1.80;;;;;;;;;;4937472;29;20906;-65
2021/03/13 13:23:07;;;;;;;2.13;1.93;;;;;;;;;;4937495;29;20456;-68
2021/03/13 13:25:34;;;;;;;3.40;2.13;;;;;;;;;;4936864;29;20461;-70
2021/03/13 13:28:02;;;;;;;4.03;2.40;;;;;;;;;;4937572;29;20457;-65
2021/03/13 13:30:29;;;;;;;3.67;2.27;;;;;;;;;;4937119;29;20892;-65
2021/03/13 13:32:56;;;;;;;4.20;2.40;;;;;;;;;;4936222;29;21043;-65
2021/03/13 13:35:23;;;;;;;3.83;2.53;;;;;;;;;;4936520;29;20897;-65
2021/03/13 13:37:50;;;;;;;5.77;2.90;;;;;;;;;;4936895;29;20460;-65
2021/03/13 13:40:18;;;;;;;4.40;3.07;;;;;;;;;;4936547;29;20944;-65
2021/03/13 13:42:45;;;;;;;5.03;3.03;;;;;;;;;;4937000;29;20516;-67
2021/03/13 13:45:14;;;;;;;6.23;3.00;;;;;;;;;;4944390;29;20464;-66
2021/03/13 13:47:40;;;;;;;5.77;3.00;;;;;;;;;;4937156;29;20591;-65
2021/03/13 13:50:10;;;;;;;2.77;2.50;;;;;;;;;;4937132;29;20445;-64
2021/03/13 13:52:37;;;;;;;5.53;3.40;;;;;;;;;;4937047;29;21071;-64
2021/03/13 13:55:04;;;;;;;3.93;2.80;;;;;;;;;;4936658;29;21008;-65
2021/03/13 13:57:32;;;;;;;4.37;3.40;;;;;;;;;;4938450;29;20472;-64
2021/03/13 13:59:59;;;;;;;4.63;3.10;;;;;;;;;;4940936;29;20453;-64
2021/03/13 14:02:26;;;;;;;6.37;3.20;;;;;;;;;;4984578;23;20534;-63
2021/03/13 14:04:53;;;;;;;5.17;3.00;;;;;;;;;;4973071;28;20470;-62
2021/03/13 14:07:20;;;;;;;6.93;2.87;;;;;;;;;;4966511;28;20542;-63
2021/03/13 14:09:47;;;;;;;5.47;3.50;;;;;;;;;;4975130;28;20447;-62
2021/03/13 14:12:13;;;;;;;6.17;3.70;;;;;;;;;;4973426;28;20474;-62
2021/03/13 14:14:40;;;;;;;5.37;4.10;;;;;;;;;;4952772;28;20498;-63
2021/03/13 14:17:07;;;;;;;5.20;4.60;;;;;;;;;;4955220;28;21146;-63
2021/03/13 14:19:35;;;;;;;7.87;4.10;;;;;;;;;;4955141;29;20452;-62
2021/03/13 14:22:02;;;;;;;4.83;3.97;;;;;;;;;;4955516;28;20487;-62
2021/03/13 14:24:28;;;;;;;6.27;3.83;;;;;;;;;;4954303;29;20448;-63
2021/03/13 14:26:55;;;;;;;5.10;3.00;;;;;;;;;;4955559;28;20487;-62
2021/03/13 14:29:22;;;;;;;3.70;3.00;;;;;;;;;;4955861;29;20491;-62
2021/03/13 14:31:49;;;;;;;3.77;2.90;;;;;;;;;;4955749;28;20455;-62
2021/03/13 14:34:16;;;;;;;7.50;3.17;;;;;;;;;;4955572;29;20692;-62
2021/03/13 14:36:46;;;;;;;3.57;3.27;;;;;;;;;;4955083;29;20531;-62
2021/03/13 14:39:13;;;;;;;3.93;2.90;;;;;;;;;;4955820;29;20464;-62
2021/03/13 14:41:40;;;;;;;5.30;3.10;;;;;;;;;;4956454;28;20452;-63
2021/03/13 14:44:07;;;;;;;3.77;2.93;;;;;;;;;;4955448;29;20527;-62